Time;durP1;ratioP1;P1;durP2;ratioP2;P2;SDS_P1;SDS_P2;PMS_P1;PMS_P2;Temp;Humidity;BMP_temperature;BMP_pressure;BME280_temperature;BME280_humidity;BME280_pressure;Samples;Min_cycle;Max_cycle;Signal;HPM_P1;HPM_P2
2022/04/12 00:01:43;;;;;;;6.40;4.70;;;;;;;14.45;44.76;98695.97;4176795;28;20294;-65
2022/04/12 00:03:45;;;;;;;5.63;4.47;;;;;;;14.45;44.68;98704.00;4169381;28;20266;-65
2022/04/12 00:05:47;;;;;;;7.03;4.20;;;;;;;14.54;44.85;98700.03;4176126;28;20236;-65
2022/04/12 00:07:48;;;;;;;6.10;4.57;;;;;;;14.51;44.85;98697.78;4176753;28;20327;-65
2022/04/12 00:09:50;;;;;;;5.53;4.37;;;;;;;14.84;44.22;98678.16;4176081;28;20252;-65
2022/04/12 00:11:52;;;;;;;5.70;4.67;;;;;;;14.26;44.87;98682.44;4173431;28;20318;-65
2022/04/12 00:13:53;;;;;;;6.40;4.57;;;;;;;14.26;45.03;98689.63;4172349;28;20253;-65
2022/04/12 00:15:56;;;;;;;5.60;4.27;;;;;;;14.45;44.76;98691.44;4173459;28;20990;-65
2022/04/12 00:20:19;;;;;;;5.10;4.00;;;;;;;14.50;44.83;98680.91;4174713;28;20235;-64
2022/04/12 00:22:20;;;;;;;6.30;4.33;;;;;;;14.52;44.69;98688.72;4174274;28;20263;-64
2022/04/12 00:24:22;;;;;;;7.77;4.70;;;;;;;13.98;45.35;98688.03;4175635;28;20266;-65
2022/04/12 00:26:23;;;;;;;7.57;4.57;;;;;;;14.18;45.08;98701.38;4178431;28;20697;-65
2022/04/12 00:28:26;;;;;;;5.70;5.10;;;;;;;14.17;45.18;98707.72;4176907;28;20255;-65
2022/04/12 00:30:29;;;;;;;6.10;4.53;;;;;;;13.62;46.09;98715.97;4170405;28;20252;-64
2022/04/12 00:32:30;;;;;;;6.93;4.43;;;;;;;13.29;46.60;98699.88;4172873;28;20713;-64
2022/04/12 00:34:32;;;;;;;7.50;4.90;;;;;;;13.38;46.66;98736.03;4170292;28;20632;-65
2022/04/12 00:36:35;;;;;;;7.83;4.73;;;;;;;13.55;46.31;98721.28;4175318;28;20278;-63
2022/04/12 00:38:36;;;;;;;9.00;5.43;;;;;;;13.93;45.92;98701.19;4175631;28;20999;-65
2022/04/12 00:40:38;;;;;;;6.20;4.80;;;;;;;13.74;45.91;98705.47;4174632;28;20282;-65
2022/04/12 00:42:43;;;;;;;5.67;4.70;;;;;;;13.67;46.18;98716.16;4174721;28;20247;-65
2022/04/12 00:44:47;;;;;;;5.73;4.70;;;;;;;13.92;45.90;98713.72;4173066;28;20685;-65
2022/04/12 00:46:48;;;;;;;7.87;4.60;;;;;;;13.77;46.02;98713.09;4170358;28;20773;-65
2022/04/12 00:48:50;;;;;;;6.10;4.50;;;;;;;13.69;46.04;98710.63;4172244;28;20255;-65
2022/04/12 00:50:52;;;;;;;7.20;4.83;;;;;;;13.73;45.99;98718.00;4175617;28;20269;-65
2022/04/12 00:52:56;;;;;;;7.10;4.63;;;;;;;13.32;46.57;98729.66;4170993;28;20326;-65
2022/04/12 00:54:57;;;;;;;5.77;4.70;;;;;;;13.52;46.29;98732.38;4177398;28;20267;-65
2022/04/12 00:56:59;;;;;;;5.80;5.07;;;;;;;13.41;46.53;98735.63;4174291;28;20808;-65
2022/04/12 00:59:02;;;;;;;6.23;5.37;;;;;;;12.87;47.41;98734.63;4173085;28;20251;-65
2022/04/12 01:01:04;;;;;;;6.77;4.70;;;;;;;13.56;46.17;98700.72;4176008;28;20235;-65
2022/04/12 01:03:06;;;;;;;6.47;4.93;;;;;;;13.40;46.44;98712.63;4176455;28;20518;-65
2022/04/12 01:05:09;;;;;;;6.23;5.13;;;;;;;13.28;46.78;98725.75;4174061;28;20232;-65
2022/04/12 01:07:11;;;;;;;8.37;5.47;;;;;;;13.54;46.63;98705.47;4173978;28;20292;-65
2022/04/12 01:09:13;;;;;;;7.50;4.97;;;;;;;13.57;46.24;98705.88;4173726;28;20259;-65
2022/04/12 01:11:14;;;;;;;5.97;4.50;;;;;;;13.67;46.12;98701.97;4174685;28;20290;-65
2022/04/12 01:13:16;;;;;;;7.47;5.03;;;;;;;13.72;45.99;98691.47;4177004;28;20343;-65
2022/04/12 01:15:21;;;;;;;7.43;4.70;;;;;;;13.40;46.55;98712.63;4174752;28;20887;-65
2022/04/12 01:17:23;;;;;;;9.20;5.20;;;;;;;13.08;47.07;98722.19;4170446;28;20849;-65
2022/04/12 01:19:24;;;;;;;7.80;5.03;;;;;;;13.58;46.32;98691.50;4173213;28;20235;-65
2022/04/12 01:21:34;;;;;;;5.50;4.10;;;;;;;13.14;46.86;98697.38;4173153;28;20258;-65
2022/04/12 01:23:59;;;;;;;6.67;4.60;;;;;;;13.34;46.70;98700.09;4175848;28;20244;-65
2022/04/12 01:26:01;;;;;;;6.50;4.80;;;;;;;13.48;46.52;98690.25;4171100;28;20248;-65
2022/04/12 01:28:04;;;;;;;7.33;5.00;;;;;;;13.47;46.42;98686.75;4174162;28;20233;-65
2022/04/12 01:30:06;;;;;;;8.40;4.40;;;;;;;13.16;47.07;98711.34;4172486;28;20243;-66
2022/04/12 01:32:08;;;;;;;9.57;5.27;;;;;;;13.44;46.63;98681.81;4174765;28;20231;-65
2022/04/12 01:34:10;;;;;;;6.20;5.33;;;;;;;13.30;46.90;98696.16;4175798;28;20223;-65
2022/04/12 01:36:11;;;;;;;8.53;5.30;;;;;;;13.49;46.43;98676.69;4173498;28;20322;-65
2022/04/12 01:38:13;;;;;;;5.90;4.87;;;;;;;13.27;46.66;98675.25;4173965;28;20260;-65
2022/04/12 01:40:15;;;;;;;6.83;4.90;;;;;;;13.58;46.53;98677.31;4166723;28;20256;-65
2022/04/12 01:42:16;;;;;;;7.63;5.20;;;;;;;13.63;46.21;98669.50;4173040;28;20255;-64
2022/04/12 01:44:18;;;;;;;6.70;4.93;;;;;;;13.70;45.83;98657.00;4170265;28;20232;-65
2022/04/12 01:46:20;;;;;;;8.10;5.20;;;;;;;13.76;45.88;98661.50;4173430;28;20270;-65
2022/04/12 01:48:21;;;;;;;6.17;4.63;;;;;;;13.75;45.84;98664.38;4173795;28;20232;-64
2022/04/12 01:50:23;;;;;;;6.90;5.50;;;;;;;13.72;45.89;98656.75;4174678;28;20254;-65
2022/04/12 01:52:25;;;;;;;5.60;4.70;;;;;;;13.69;45.97;98662.53;4172930;28;20649;-66
2022/04/12 01:54:26;;;;;;;7.30;5.10;;;;;;;13.46;46.43;98674.44;4176418;28;20232;-65
2022/04/12 01:56:28;;;;;;;8.53;5.60;;;;;;;13.75;45.80;98657.19;4170483;28;20704;-67
2022/04/12 01:58:32;;;;;;;6.50;4.80;;;;;;;13.68;45.76;98664.38;4175564;28;20258;-65
2022/04/12 02:00:36;;;;;;;6.30;4.93;;;;;;;13.98;45.67;98647.13;4168023;28;20293;-65
2022/04/12 02:02:38;;;;;;;5.83;4.70;;;;;;;14.11;45.20;98641.75;4174907;28;20248;-65
2022/04/12 02:04:39;;;;;;;5.67;5.07;;;;;;;14.08;45.14;98644.84;4172006;28;20238;-65
2022/04/12 02:06:41;;;;;;;6.60;5.03;;;;;;;13.82;45.60;98659.00;4171633;28;20264;-65
2022/04/12 02:08:43;;;;;;;7.63;4.93;;;;;;;14.17;45.10;98648.91;4175051;28;20255;-65
2022/04/12 02:10:45;;;;;;;6.67;5.20;;;;;;;14.38;44.82;98628.28;4175252;28;20323;-65
2022/04/12 02:12:48;;;;;;;7.37;5.00;;;;;;;14.42;44.63;98622.31;4174646;28;20251;-65
2022/04/12 02:14:49;;;;;;;6.70;4.77;;;;;;;13.84;45.59;98668.50;4171495;28;20254;-65
2022/04/12 02:16:51;;;;;;;6.30;4.60;;;;;;;14.16;45.23;98636.59;4174320;28;20321;-65
2022/04/12 02:18:53;;;;;;;5.93;4.87;;;;;;;13.65;45.74;98666.63;4174036;28;20262;-65
2022/04/12 02:20:54;;;;;;;6.10;4.83;;;;;;;14.22;44.88;98627.72;4172538;28;20236;-65
2022/04/12 02:22:56;;;;;;;7.80;4.87;;;;;;;13.98;45.37;98655.94;4171913;28;20386;-66
2022/04/12 02:24:58;;;;;;;7.10;4.57;;;;;;;14.41;44.75;98622.53;4169141;28;20335;-65
2022/04/12 02:26:59;;;;;;;7.50;4.63;;;;;;;14.10;45.06;98648.13;4172935;28;20696;-65
2022/04/12 02:29:01;;;;;;;6.43;5.23;;;;;;;14.12;44.82;98638.03;4175517;28;20228;-65
2022/04/12 02:31:08;;;;;;;5.90;4.80;;;;;;;13.45;45.95;98656.78;4174765;28;20224;-65
2022/04/12 02:33:11;;;;;;;7.27;5.10;;;;;;;13.86;45.79;98662.97;4173541;28;20705;-65
2022/04/12 02:35:12;;;;;;;8.97;5.30;;;;;;;14.09;45.20;98641.13;4172300;28;20319;-65
2022/04/12 02:37:14;;;;;;;8.33;4.63;;;;;;;13.83;45.39;98661.50;4172987;28;20228;-66
2022/04/12 02:39:16;;;;;;;8.67;4.77;;;;;;;13.76;45.96;98674.03;4171666;28;20260;-66
2022/04/12 02:41:18;;;;;;;6.90;5.03;;;;;;;13.59;46.01;98671.75;4168890;28;20322;-65
2022/04/12 02:43:19;;;;;;;7.20;5.87;;;;;;;13.65;46.06;98672.81;4168096;28;20315;-65
2022/04/12 02:45:21;;;;;;;7.23;5.30;;;;;;;13.51;45.99;98668.47;4171030;28;20260;-65
2022/04/12 02:47:25;;;;;;;8.30;5.10;;;;;;;12.97;46.89;98679.06;4172064;28;20228;-65
2022/04/12 02:49:26;;;;;;;7.50;5.10;;;;;;;13.03;47.12;98701.47;4176568;28;20228;-65
2022/04/12 02:51:28;;;;;;;6.77;5.33;;;;;;;12.90;47.34;98701.41;4173882;28;20255;-65
2022/04/12 02:53:30;;;;;;;6.50;5.00;;;;;;;12.67;47.78;98703.34;4172993;28;20291;-65
2022/04/12 02:55:31;;;;;;;6.40;5.23;;;;;;;12.87;47.53;98686.63;4171810;28;21033;-65
2022/04/12 02:57:33;;;;;;;6.97;5.53;;;;;;;13.12;47.05;98668.22;4173641;28;20895;-65
2022/04/12 02:59:35;;;;;;;5.77;4.80;;;;;;;12.82;47.92;98691.69;4173374;28;20259;-65
2022/04/12 03:01:36;;;;;;;6.77;5.30;;;;;;;12.81;47.55;98687.41;4171422;28;20259;-65
2022/04/12 03:03:38;;;;;;;9.57;7.17;;;;;;;12.55;48.03;98696.09;4173783;28;20227;-65
2022/04/12 03:05:40;;;;;;;9.03;5.83;;;;;;;12.52;48.13;98697.31;4167984;28;20255;-63
2022/04/12 03:07:42;;;;;;;6.13;5.33;;;;;;;12.72;47.84;98678.72;4169224;28;20647;-64
2022/04/12 03:09:43;;;;;;;7.27;5.67;;;;;;;12.81;47.64;98676.72;4173165;28;20228;-64
2022/04/12 03:11:45;;;;;;;6.80;5.90;;;;;;;12.80;47.32;98677.75;4174041;28;20235;-64
2022/04/12 03:13:47;;;;;;;12.60;10.03;;;;;;;12.88;47.65;98682.94;4170318;28;20258;-64
2022/04/12 03:15:48;;;;;;;12.70;9.10;;;;;;;13.10;47.30;98670.28;4174950;28;20270;-63
2022/04/12 03:17:50;;;;;;;15.90;10.30;;;;;;;13.19;47.08;98654.88;4171930;28;20270;-64
2022/04/12 03:19:52;;;;;;;10.27;7.93;;;;;;;13.34;46.58;98644.84;4171644;28;20270;-65
2022/04/12 03:21:53;;;;;;;9.80;7.93;;;;;;;13.46;46.29;98637.03;4174252;28;20267;-65
2022/04/12 03:23:55;;;;;;;18.13;11.77;;;;;;;13.01;47.26;98696.31;4176101;28;20315;-64
2022/04/12 03:25:56;;;;;;;21.53;14.43;;;;;;;12.81;47.12;98688.22;4168987;28;20293;-65
2022/04/12 03:27:58;;;;;;;7.33;6.17;;;;;;;12.67;47.86;98706.03;4176368;28;20275;-64
2022/04/12 03:30:00;;;;;;;10.60;7.97;;;;;;;13.10;46.97;98677.47;4171007;28;20728;-65
2022/04/12 03:32:01;;;;;;;11.67;9.60;;;;;;;13.08;46.78;98682.16;4174025;28;20302;-64
2022/04/12 03:34:03;;;;;;;10.00;7.63;;;;;;;13.05;46.90;98674.59;4168584;28;20228;-66
2022/04/12 03:36:05;;;;;;;10.13;8.07;;;;;;;13.27;46.70;98662.72;4169761;28;20263;-67
2022/04/12 03:38:07;;;;;;;13.50;6.53;;;;;;;12.99;47.14;98695.72;4172011;28;20311;-65
2022/04/12 03:40:09;;;;;;;8.00;5.80;;;;;;;12.80;47.45;98691.91;4172752;28;20969;-64
2022/04/12 03:42:11;;;;;;;7.20;5.93;;;;;;;12.80;47.22;98683.91;4173851;28;20255;-63
2022/04/12 03:44:14;;;;;;;7.57;5.70;;;;;;;12.82;47.30;98684.50;4172031;28;20224;-64
2022/04/12 03:46:21;;;;;;;6.07;5.43;;;;;;;12.55;47.80;98698.75;4172744;28;20322;-63
2022/04/12 03:48:22;;;;;;;7.63;6.40;;;;;;;12.97;47.00;98680.91;4173736;28;20232;-64
2022/04/12 03:50:24;;;;;;;8.97;7.17;;;;;;;12.89;47.21;98678.41;4175020;28;20315;-64
2022/04/12 03:52:26;;;;;;;10.23;6.20;;;;;;;13.02;47.16;98681.13;4170359;28;20270;-64
2022/04/12 03:54:28;;;;;;;7.77;6.60;;;;;;;13.12;46.94;98667.41;4171883;28;20222;-65
2022/04/12 03:56:30;;;;;;;8.27;6.00;;;;;;;12.85;47.37;98686.78;4167195;28;20272;-63
2022/04/12 03:58:32;;;;;;;7.23;6.07;;;;;;;12.48;47.89;98691.53;4170245;28;20658;-64
2022/04/12 04:00:35;;;;;;;10.77;7.47;;;;;;;12.87;47.38;98667.13;4172317;28;20241;-64
2022/04/12 04:02:37;;;;;;;12.87;9.57;;;;;;;13.01;47.24;98671.47;4171971;28;20239;-64
2022/04/12 04:04:38;;;;;;;9.60;7.73;;;;;;;13.12;46.87;98667.41;4173739;28;20240;-64
2022/04/12 04:06:40;;;;;;;8.57;6.47;;;;;;;13.01;47.11;98677.66;4170909;28;20275;-65
2022/04/12 04:08:42;;;;;;;10.00;7.67;;;;;;;13.02;46.89;98663.25;4169609;28;20255;-63
2022/04/12 04:10:43;;;;;;;8.33;6.03;;;;;;;12.80;47.31;98681.22;4174083;28;20265;-63
2022/04/12 04:12:46;;;;;;;8.97;6.20;;;;;;;12.79;47.26;98684.94;4175414;28;20232;-63
2022/04/12 04:14:48;;;;;;;6.77;5.90;;;;;;;12.93;46.94;98674.34;4174185;28;20618;-63
2022/04/12 04:16:50;;;;;;;7.73;5.60;;;;;;;12.78;47.39;98693.94;4173701;28;20336;-65
2022/04/12 04:18:51;;;;;;;8.77;6.00;;;;;;;13.00;47.10;98673.31;4176891;28;20236;-63
2022/04/12 04:20:53;;;;;;;8.37;6.00;;;;;;;12.76;47.29;98693.34;4177031;28;20973;-65
2022/04/12 04:22:54;;;;;;;8.43;5.93;;;;;;;12.69;47.44;98699.66;4176400;28;20238;-64
2022/04/12 04:24:56;;;;;;;6.40;5.63;;;;;;;12.67;47.57;98707.84;4172919;28;20234;-64
2022/04/12 04:26:58;;;;;;;7.57;5.83;;;;;;;12.43;47.96;98707.31;4172821;28;20270;-63
2022/04/12 04:29:00;;;;;;;7.60;5.73;;;;;;;11.90;49.09;98722.97;4177423;28;20243;-63
2022/04/12 04:31:02;;;;;;;7.03;5.70;;;;;;;12.40;48.38;98712.22;4173958;28;20258;-64
2022/04/12 04:33:04;;;;;;;7.87;5.77;;;;;;;12.56;48.00;98703.91;4176419;28;20326;-64
2022/04/12 04:35:05;;;;;;;7.80;6.03;;;;;;;12.48;48.21;98699.53;4174934;28;20255;-65
2022/04/12 04:37:07;;;;;;;8.77;6.00;;;;;;;12.79;47.65;98678.75;4176223;28;20653;-65
2022/04/12 04:39:09;;;;;;;9.40;7.07;;;;;;;12.47;48.14;98702.41;4175716;28;20278;-64
2022/04/12 04:41:10;;;;;;;6.60;5.30;;;;;;;12.79;47.71;98676.09;4174388;28;20259;-64
2022/04/12 04:43:12;;;;;;;7.37;5.57;;;;;;;12.74;47.71;98679.38;4175077;28;20234;-65
2022/04/12 04:45:15;;;;;;;7.53;5.67;;;;;;;12.53;48.29;98695.47;4176389;28;20263;-64
2022/04/12 04:47:17;;;;;;;7.97;6.10;;;;;;;12.79;47.84;98679.59;4176650;28;20926;-64
2022/04/12 04:49:18;;;;;;;6.50;5.53;;;;;;;12.85;47.65;98670.78;4174976;28;20287;-65
2022/04/12 04:51:20;;;;;;;9.17;5.87;;;;;;;12.54;48.12;98689.94;4175260;28;20263;-64
2022/04/12 04:53:22;;;;;;;9.37;6.53;;;;;;;12.10;48.96;98715.94;4171525;28;20682;-64
2022/04/12 04:55:23;;;;;;;8.17;5.93;;;;;;;12.16;49.25;98724.16;4175986;28;20224;-64
2022/04/12 04:57:25;;;;;;;7.80;5.97;;;;;;;12.22;48.86;98713.56;4172296;28;20653;-64
2022/04/12 04:59:26;;;;;;;7.57;5.90;;;;;;;12.04;49.30;98729.22;4177454;28;20709;-64
2022/04/12 05:01:29;;;;;;;7.97;6.70;;;;;;;12.66;48.16;98682.22;4175262;28;20262;-65
2022/04/12 05:03:30;;;;;;;8.00;6.03;;;;;;;12.36;48.63;98706.47;4174711;28;20254;-65
2022/04/12 05:05:32;;;;;;;8.80;5.90;;;;;;;12.43;48.53;98706.50;4175179;28;20250;-65
2022/04/12 05:07:34;;;;;;;7.60;6.13;;;;;;;12.51;48.55;98703.69;4172396;28;20254;-64
2022/04/12 05:09:35;;;;;;;7.40;6.10;;;;;;;12.52;48.37;98707.97;4174656;28;20337;-63
2022/04/12 05:11:37;;;;;;;8.00;5.90;;;;;;;12.80;47.92;98675.06;4174828;28;20298;-64
2022/04/12 05:13:39;;;;;;;7.83;6.10;;;;;;;12.60;48.18;98707.00;4174042;28;20316;-64
2022/04/12 05:15:40;;;;;;;9.57;6.40;;;;;;;12.77;47.93;98689.63;4174204;28;20228;-64
2022/04/12 05:17:49;;;;;;;9.60;6.63;;;;;;;12.79;47.98;98706.28;4176579;28;20246;-64
2022/04/12 05:19:51;;;;;;;9.07;6.13;;;;;;;12.60;48.26;98709.66;4172492;28;20267;-65
2022/04/12 05:21:53;;;;;;;7.10;5.90;;;;;;;12.80;48.10;98691.91;4177443;28;20223;-65
2022/04/12 05:23:55;;;;;;;8.30;5.80;;;;;;;12.79;48.04;98690.28;4170411;28;20318;-61
2022/04/12 05:25:57;;;;;;;7.20;5.80;;;;;;;12.19;49.34;98731.78;4170161;28;20290;-64
2022/04/12 05:27:58;;;;;;;7.07;5.40;;;;;;;12.68;48.08;98704.16;4176820;28;20739;-63
2022/04/12 05:30:01;;;;;;;6.70;5.80;;;;;;;12.77;48.26;98691.47;4172169;28;20867;-64
2022/04/12 05:32:03;;;;;;;7.87;5.90;;;;;;;12.57;48.52;98710.91;4173796;28;20254;-64
2022/04/12 05:34:05;;;;;;;7.23;5.83;;;;;;;13.14;47.71;98671.50;4171188;28;20521;-63
2022/04/12 05:36:07;;;;;;;6.97;6.20;;;;;;;13.02;47.86;98675.78;4176945;28;20272;-64
2022/04/12 05:38:08;;;;;;;6.73;5.60;;;;;;;12.66;48.68;98724.88;4174091;28;20255;-64
2022/04/12 05:40:13;;;;;;;7.53;6.07;;;;;;;13.11;47.98;98685.28;4177101;28;20254;-63
2022/04/12 05:42:14;;;;;;;6.57;5.60;;;;;;;13.08;47.95;98668.81;4174466;28;20254;-64
2022/04/12 05:44:16;;;;;;;9.83;5.80;;;;;;;13.51;47.05;98663.13;4175673;28;20242;-64
2022/04/12 05:46:18;;;;;;;7.63;5.70;;;;;;;13.43;47.22;98658.00;4174717;28;20260;-63
2022/04/12 05:48:19;;;;;;;7.50;5.57;;;;;;;13.33;47.33;98669.91;4174462;28;20220;-63
2022/04/12 05:50:23;;;;;;;8.17;5.53;;;;;;;13.22;47.70;98683.84;4174795;28;20256;-64
2022/04/12 05:52:25;;;;;;;7.27;5.97;;;;;;;13.48;47.31;98663.53;4172135;28;20228;-62
2022/04/12 05:54:26;;;;;;;6.47;5.67;;;;;;;13.24;47.12;98668.44;4174717;28;20311;-63
2022/04/12 05:56:28;;;;;;;8.57;5.40;;;;;;;12.94;47.88;98703.47;4169431;28;20226;-64
2022/04/12 05:58:30;;;;;;;7.17;5.67;;;;;;;13.22;47.15;98684.66;4173421;28;20263;-63
2022/04/12 06:00:34;;;;;;;8.67;5.70;;;;;;;12.85;48.16;98704.66;4171558;28;20689;-64
2022/04/12 06:02:36;;;;;;;6.17;5.10;;;;;;;13.36;47.46;98669.47;4170241;28;20255;-63
2022/04/12 06:04:37;;;;;;;8.43;6.20;;;;;;;12.97;48.16;98696.91;4168438;28;20785;-63
2022/04/12 06:06:41;;;;;;;8.00;6.00;;;;;;;13.31;47.67;98677.28;4180152;28;20255;-63
2022/04/12 06:08:42;;;;;;;7.00;5.10;;;;;;;13.06;48.36;98698.38;4172431;28;20264;-64
2022/04/12 06:10:44;;;;;;;6.80;5.57;;;;;;;12.99;48.35;98713.53;4169588;28;20266;-63
2022/04/12 06:12:46;;;;;;;6.63;5.67;;;;;;;13.19;48.30;98692.25;4175180;28;20318;-63
2022/04/12 06:14:48;;;;;;;6.27;5.53;;;;;;;12.81;49.00;98716.75;4172144;28;20227;-64
2022/04/12 06:16:49;;;;;;;7.80;5.90;;;;;;;13.01;48.44;98690.16;4177816;28;20263;-64
2022/04/12 06:18:52;;;;;;;8.07;5.83;;;;;;;13.02;48.57;98689.94;4171178;28;20702;-64
2022/04/12 06:20:54;;;;;;;5.80;4.87;;;;;;;12.92;48.87;98704.69;4181739;28;20583;-63
2022/04/12 06:22:55;;;;;;;6.90;5.23;;;;;;;12.29;49.75;98740.25;4174326;28;20228;-63
2022/04/12 06:24:57;;;;;;;7.33;6.00;;;;;;;12.73;49.27;98714.25;4180592;28;20264;-63
2022/04/12 06:26:59;;;;;;;8.73;5.23;;;;;;;13.07;48.22;98686.69;4176263;28;20614;-64
2022/04/12 06:29:00;;;;;;;8.93;6.17;;;;;;;12.80;48.95;98718.56;4171821;28;20290;-64
2022/04/12 06:31:02;;;;;;;6.10;5.50;;;;;;;13.14;48.70;98697.38;4179576;28;20705;-64
2022/04/12 06:33:04;;;;;;;7.33;5.30;;;;;;;12.87;49.32;98726.63;4172645;28;20255;-63
2022/04/12 06:35:09;;;;;;;8.20;4.97;;;;;;;13.01;49.32;98709.66;4175383;28;20581;-63
2022/04/12 06:37:10;;;;;;;8.43;6.17;;;;;;;13.10;48.89;98678.28;4171364;28;20289;-63
2022/04/12 06:39:12;;;;;;;13.43;5.50;;;;;;;13.24;48.38;98684.47;4173808;28;20224;-63
2022/04/12 06:41:13;;;;;;;6.97;4.83;;;;;;;13.14;48.74;98702.72;4168843;28;20263;-64
2022/04/12 06:43:16;;;;;;;11.33;5.60;;;;;;;13.58;48.23;98677.31;4173189;28;20247;-64
2022/04/12 06:45:18;;;;;;;10.03;5.20;;;;;;;12.88;49.06;98722.16;4176077;28;20255;-64
2022/04/12 06:47:19;;;;;;;6.67;5.47;;;;;;;13.06;49.31;98711.72;4178332;28;20242;-63
2022/04/12 06:49:21;;;;;;;6.13;5.47;;;;;;;13.43;48.22;98671.34;4176488;28;20593;-63
2022/04/12 06:51:23;;;;;;;9.57;5.27;;;;;;;13.43;48.19;98698.88;4168786;28;20248;-63
2022/04/12 06:53:25;;;;;;;7.47;5.20;;;;;;;12.90;49.08;98728.09;4179070;28;20286;-63
2022/04/12 06:55:26;;;;;;;8.47;5.70;;;;;;;13.18;48.90;98695.94;4172830;28;20251;-63
2022/04/12 06:57:32;;;;;;;5.90;5.17;;;;;;;12.85;49.32;98721.47;4176653;28;20232;-64
2022/04/12 06:59:35;;;;;;;6.93;5.30;;;;;;;13.24;48.61;98697.00;4166590;28;20704;-64
2022/04/12 07:01:36;;;;;;;8.10;5.90;;;;;;;13.17;49.07;98703.13;4178312;28;20243;-64
2022/04/12 07:03:38;;;;;;;7.17;5.93;;;;;;;13.45;48.85;98699.50;4175007;28;20895;-64
2022/04/12 07:05:40;;;;;;;8.90;5.63;;;;;;;13.52;48.13;98680.81;4177859;28;20251;-64
2022/04/12 07:07:42;;;;;;;6.90;5.37;;;;;;;13.29;48.13;98707.88;4174336;28;20799;-63
2022/04/12 07:09:44;;;;;;;6.10;5.00;;;;;;;13.68;47.87;98699.09;4176246;28;20530;-64
2022/04/12 07:11:47;;;;;;;6.47;5.17;;;;;;;13.44;48.33;98684.50;4174765;28;20303;-63
2022/04/12 07:13:48;;;;;;;7.83;5.53;;;;;;;12.89;49.34;98731.78;4171403;28;20259;-63
2022/04/12 07:15:50;;;;;;;7.60;5.57;;;;;;;13.52;48.25;98700.31;4176219;28;20727;-64
2022/04/12 07:17:52;;;;;;;6.10;5.00;;;;;;;13.61;47.81;98681.44;4173872;28;20228;-63
2022/04/12 07:19:53;;;;;;;5.77;5.17;;;;;;;13.74;47.73;98681.44;4176073;28;20281;-64
2022/04/12 07:21:55;;;;;;;6.70;5.50;;;;;;;14.19;46.94;98662.91;4174714;28;20232;-63
2022/04/12 07:23:59;;;;;;;5.47;4.27;;;;;;;13.99;48.08;98641.56;4176145;28;20230;-64
2022/04/12 07:26:00;;;;;;;6.83;5.00;;;;;;;14.35;47.36;98655.47;4173078;28;20314;-63
2022/04/12 07:28:02;;;;;;;5.87;5.23;;;;;;;13.98;48.07;98653.28;4173989;28;20914;-62
2022/04/12 07:30:05;;;;;;;8.10;4.80;;;;;;;13.99;48.10;98665.63;4176955;28;20232;-63
2022/04/12 07:32:07;;;;;;;5.03;4.37;;;;;;;13.91;47.98;98663.97;4175586;28;20267;-63
2022/04/12 07:34:09;;;;;;;5.40;4.90;;;;;;;14.24;48.05;98648.91;4172102;28;20242;-63
2022/04/12 07:36:11;;;;;;;5.83;4.57;;;;;;;14.04;47.95;98662.31;4169930;28;20279;-62
2022/04/12 07:38:13;;;;;;;13.30;5.00;;;;;;;14.48;48.10;98647.41;4170973;28;20303;-63
2022/04/12 07:40:15;;;;;;;5.90;4.60;;;;;;;14.00;49.23;98674.47;4177616;28;20234;-64
2022/04/12 07:42:16;;;;;;;5.33;4.20;;;;;;;14.70;47.61;98618.50;4172338;28;20267;-62
2022/04/12 07:44:20;;;;;;;5.47;4.43;;;;;;;14.03;48.48;98687.41;4172660;28;20760;-63
2022/04/12 07:46:21;;;;;;;6.50;4.50;;;;;;;14.25;47.80;98638.00;4175387;28;20260;-62
2022/04/12 07:48:23;;;;;;;4.93;4.40;;;;;;;14.40;48.30;98656.47;4178306;28;20252;-63
2022/04/12 07:50:25;;;;;;;5.00;4.10;;;;;;;14.74;47.27;98630.41;4179440;28;20252;-62
2022/04/12 07:52:27;;;;;;;5.03;4.20;;;;;;;14.61;47.19;98628.59;4181308;28;20683;-63
2022/04/12 07:54:28;;;;;;;4.87;4.33;;;;;;;14.16;49.57;98641.94;4173768;28;20228;-63
2022/04/12 07:56:31;;;;;;;5.90;4.20;;;;;;;14.17;50.25;98661.47;4175906;28;20256;-61
2022/04/12 07:58:32;;;;;;;6.97;4.27;;;;;;;14.70;47.80;98621.19;4179208;28;20703;-63
2022/04/12 08:00:34;;;;;;;4.47;4.07;;;;;;;14.74;47.59;98605.50;4181901;28;20258;-63
2022/04/12 08:02:36;;;;;;;5.17;3.93;;;;;;;12.92;51.41;98700.19;4179851;28;20323;-63
2022/04/12 08:04:41;;;;;;;6.80;4.53;;;;;;;14.15;50.00;98654.47;4175635;28;20234;-63
2022/04/12 08:06:42;;;;;;;5.33;4.00;;;;;;;14.63;48.93;98621.22;4176995;28;20239;-64
2022/04/12 08:08:44;;;;;;;5.33;4.03;;;;;;;14.93;46.81;98596.56;4177985;28;20224;-63
2022/04/12 08:10:46;;;;;;;6.47;3.90;;;;;;;14.72;47.86;98621.78;4180954;28;20282;-62
2022/04/12 08:12:48;;;;;;;8.90;4.00;;;;;;;13.51;49.59;98676.50;4176083;28;20255;-63
2022/04/12 08:14:50;;;;;;;4.07;3.60;;;;;;;13.77;49.55;98692.53;4174327;28;20231;-62
2022/04/12 08:16:52;;;;;;;7.27;4.43;;;;;;;15.34;47.61;98589.91;4180032;28;20239;-63
2022/04/12 08:18:55;;;;;;;5.80;3.80;;;;;;;15.30;47.93;98590.53;4174978;28;20314;-63
2022/04/12 08:20:56;;;;;;;4.00;3.50;;;;;;;15.18;47.42;98598.47;4180111;28;20290;-64
2022/04/12 08:22:59;;;;;;;7.97;3.50;;;;;;;15.84;45.97;98594.41;4174461;28;20256;-63
2022/04/12 08:25:00;;;;;;;4.83;3.60;;;;;;;15.52;46.23;98570.34;4182430;28;20255;-64
2022/04/12 08:27:03;;;;;;;5.67;3.23;;;;;;;15.84;46.13;98566.78;4172411;28;20267;-63
2022/04/12 08:29:05;;;;;;;3.93;3.50;;;;;;;15.32;47.05;98575.91;4175281;28;20227;-64
2022/04/12 08:31:06;;;;;;;4.90;3.13;;;;;;;16.11;45.18;98554.72;4176432;28;20255;-63
2022/04/12 08:33:09;;;;;;;4.10;3.30;;;;;;;16.12;45.24;98560.91;4174664;28;20247;-63
2022/04/12 08:35:11;;;;;;;3.67;3.10;;;;;;;16.53;45.30;98551.34;4178173;28;20260;-64
2022/04/12 08:37:13;;;;;;;4.63;3.50;;;;;;;15.68;45.29;98563.66;4174320;28;20274;-63
2022/04/12 08:39:15;;;;;;;3.53;3.10;;;;;;;16.21;44.29;98566.78;4178460;28;20243;-63
2022/04/12 08:41:18;;;;;;;6.10;2.93;;;;;;;15.88;45.92;98595.63;4176972;28;20274;-62
2022/04/12 08:43:21;;;;;;;3.93;2.70;;;;;;;16.45;44.96;98563.19;4176739;28;20756;-63
2022/04/12 08:45:24;;;;;;;4.63;2.87;;;;;;;16.46;43.74;98538.00;4176352;28;20219;-63
2022/04/12 08:47:27;;;;;;;4.13;2.77;;;;;;;15.67;47.02;98599.53;4181630;28;20671;-63
2022/04/12 08:49:29;;;;;;;3.40;2.83;;;;;;;15.27;48.02;98618.56;4176964;28;20255;-64
2022/04/12 08:51:31;;;;;;;4.90;2.70;;;;;;;16.24;45.74;98561.78;4180635;28;20278;-63
2022/04/12 08:53:33;;;;;;;5.20;2.97;;;;;;;16.36;45.42;98526.97;4177225;28;20274;-63
2022/04/12 08:55:36;;;;;;;4.37;3.10;;;;;;;16.22;45.50;98563.88;4176394;28;20235;-64
2022/04/12 08:57:38;;;;;;;4.03;3.43;;;;;;;16.91;44.96;98542.94;4180854;28;20231;-63
2022/04/12 08:59:41;;;;;;;5.63;2.90;;;;;;;16.95;44.11;98519.13;4179273;28;20251;-63
2022/04/12 09:01:43;;;;;;;4.37;3.00;;;;;;;16.67;44.36;98523.28;4175236;28;20760;-64
2022/04/12 09:03:46;;;;;;;3.53;2.97;;;;;;;16.81;43.61;98507.78;4172180;28;20227;-64
2022/04/12 09:05:48;;;;;;;4.33;2.93;;;;;;;16.84;44.64;98536.03;4176033;28;20311;-63
2022/04/12 09:07:50;;;;;;;3.53;3.00;;;;;;;17.41;43.69;98509.53;4176022;28;20251;-63
2022/04/12 09:09:52;;;;;;;4.37;3.10;;;;;;;17.61;43.27;98484.94;4176131;28;20259;-64
2022/04/12 09:11:57;;;;;;;4.00;3.13;;;;;;;17.41;43.18;98496.09;4175567;28;20279;-63
2022/04/12 09:14:00;;;;;;;3.73;3.20;;;;;;;17.50;43.04;98499.25;4172429;28;20236;-63
2022/04/12 09:16:07;;;;;;;5.43;2.90;;;;;;;17.45;43.86;98501.81;4179594;28;20334;-62
2022/04/12 09:18:34;;;;;;;3.80;2.97;;;;;;;16.86;45.75;98553.56;4171340;28;20672;-63
2022/04/12 09:20:36;;;;;;;4.63;3.30;;;;;;;17.47;43.66;98507.75;4180303;28;20913;-63
2022/04/12 09:22:38;;;;;;;4.13;2.80;;;;;;;17.21;45.16;98506.31;4171968;28;20269;-64
2022/04/12 09:24:49;;;;;;;4.27;3.07;;;;;;;16.97;44.83;98521.59;4179588;28;20266;-64
2022/04/12 09:26:57;;;;;;;7.37;2.90;;;;;;;17.54;45.00;98516.50;4172965;28;20239;-63
2022/04/12 09:29:02;;;;;;;3.27;2.90;;;;;;;17.94;42.86;98482.69;4176821;28;20266;-64
2022/04/12 09:31:14;;;;;;;4.43;3.00;;;;;;;18.20;42.28;98466.00;4176313;28;20599;-62
2022/04/12 09:33:35;;;;;;;5.20;2.63;;;;;;;18.63;41.65;98474.56;4174194;28;20258;-63
2022/04/12 09:35:38;;;;;;;5.10;3.27;;;;;;;18.04;43.89;98464.06;4171731;28;20354;-64
2022/04/12 09:37:44;;;;;;;4.50;2.73;;;;;;;17.55;43.56;98483.22;4173863;28;20285;-63